Time;durP1;ratioP1;P1;durP2;ratioP2;P2;SDS_P1;SDS_P2;PMS_P1;PMS_P2;Temp;Humidity;BMP_temperature;BMP_pressure;BME280_temperature;BME280_humidity;BME280_pressure;Samples;Min_cycle;Max_cycle;Signal;HPM_P1;HPM_P2
2021/10/28 00:12:21;;;;;;;21.88;13.02;;;;;;;;;;4857575;29;20058;-67
2021/10/28 00:14:53;;;;;;;23.63;14.25;;;;;;;;;;4866419;29;20064;-67
2021/10/28 00:17:37;;;;;;;18.80;12.98;;;;;;;;;;4847186;29;20154;-67
2021/10/28 00:20:06;;;;;;;20.88;12.90;;;;;;;;;;4877098;29;20120;-68
2021/10/28 00:22:33;;;;;;;21.52;13.55;;;;;;;;;;4877701;29;20109;-67
2021/10/28 00:25:00;;;;;;;20.90;13.10;;;;;;;;;;4876764;29;20061;-68
2021/10/28 00:27:27;;;;;;;22.70;13.35;;;;;;;;;;4861292;29;20104;-68
2021/10/28 00:29:54;;;;;;;19.85;13.25;;;;;;;;;;4861438;29;20489;-68
2021/10/28 00:32:20;;;;;;;24.80;15.60;;;;;;;;;;4877783;29;20061;-68
2021/10/28 00:34:47;;;;;;;19.25;13.25;;;;;;;;;;4861438;29;20128;-68
2021/10/28 00:37:13;;;;;;;22.05;14.00;;;;;;;;;;4861055;29;20104;-68
2021/10/28 00:39:41;;;;;;;24.00;14.95;;;;;;;;;;4843021;29;20054;-68
2021/10/28 00:42:08;;;;;;;21.90;14.00;;;;;;;;;;4858936;29;20053;-67
2021/10/28 00:44:34;;;;;;;27.38;15.30;;;;;;;;;;4859240;29;20474;-67
2021/10/28 00:47:01;;;;;;;27.83;16.40;;;;;;;;;;4858972;29;20098;-67
2021/10/28 00:49:29;;;;;;;34.83;18.02;;;;;;;;;;4857972;29;20049;-67
2021/10/28 00:51:55;;;;;;;39.33;19.70;;;;;;;;;;4858841;29;20061;-67
2021/10/28 00:54:22;;;;;;;37.35;18.90;;;;;;;;;;4827719;29;20093;-67
2021/10/28 00:56:49;;;;;;;30.98;17.60;;;;;;;;;;4877427;29;20076;-67
2021/10/28 00:59:15;;;;;;;28.77;15.75;;;;;;;;;;4881032;29;20049;-67
2021/10/28 01:01:42;;;;;;;26.50;15.57;;;;;;;;;;4879636;29;20184;-67
2021/10/28 01:04:09;;;;;;;23.95;14.68;;;;;;;;;;4864594;29;20096;-68
2021/10/28 01:06:37;;;;;;;26.15;14.93;;;;;;;;;;4864086;29;20114;-67
2021/10/28 01:09:04;;;;;;;24.60;14.88;;;;;;;;;;4848927;29;20105;-67
2021/10/28 01:11:31;;;;;;;23.30;16.00;;;;;;;;;;4864058;29;20113;-68
2021/10/28 01:13:59;;;;;;;22.90;14.32;;;;;;;;;;4863951;29;20143;-67
2021/10/28 01:16:27;;;;;;;22.10;14.15;;;;;;;;;;4863959;29;20049;-68
2021/10/28 01:18:54;;;;;;;24.70;14.02;;;;;;;;;;4864096;29;20057;-68
2021/10/28 01:21:21;;;;;;;25.13;15.40;;;;;;;;;;4863773;29;20049;-67
2021/10/28 01:23:48;;;;;;;23.20;13.95;;;;;;;;;;4879254;29;20105;-67
2021/10/28 01:26:16;;;;;;;24.02;14.55;;;;;;;;;;4879456;29;20101;-67
2021/10/28 01:28:59;;;;;;;25.38;15.18;;;;;;;;;;4879063;29;20064;-67
2021/10/28 01:31:28;;;;;;;26.55;15.68;;;;;;;;;;4878971;29;20049;-67
2021/10/28 01:33:56;;;;;;;33.50;17.75;;;;;;;;;;4880147;29;20093;-67
2021/10/28 01:36:24;;;;;;;30.05;16.60;;;;;;;;;;4878826;29;20049;-67
2021/10/28 01:38:51;;;;;;;28.25;16.40;;;;;;;;;;4880109;29;20119;-67
2021/10/28 01:41:18;;;;;;;24.02;16.08;;;;;;;;;;4848395;29;20085;-67
2021/10/28 01:43:45;;;;;;;33.20;18.25;;;;;;;;;;4848605;29;20586;-67
2021/10/28 01:46:12;;;;;;;30.15;17.10;;;;;;;;;;4890220;23;20041;-67
2021/10/28 01:48:40;;;;;;;29.27;16.27;;;;;;;;;;4917414;29;20052;-67
2021/10/28 01:51:07;;;;;;;29.75;17.45;;;;;;;;;;4917547;29;20052;-67
2021/10/28 01:53:39;;;;;;;30.98;18.38;;;;;;;;;;4917309;29;20056;-67
2021/10/28 01:56:07;;;;;;;28.42;18.35;;;;;;;;;;4917482;29;20052;-67
2021/10/28 01:58:33;;;;;;;28.55;17.88;;;;;;;;;;4917278;29;20048;-67
2021/10/28 02:01:01;;;;;;;29.13;17.67;;;;;;;;;;4900638;29;20060;-67
2021/10/28 02:03:28;;;;;;;32.83;18.38;;;;;;;;;;4917219;29;20062;-67
2021/10/28 02:05:55;;;;;;;31.30;18.35;;;;;;;;;;4917168;29;20127;-67
2021/10/28 02:08:23;;;;;;;29.17;17.65;;;;;;;;;;4916022;29;20107;-67
2021/10/28 02:10:50;;;;;;;32.97;18.73;;;;;;;;;;4917025;29;20108;-67
2021/10/28 02:13:18;;;;;;;32.97;17.77;;;;;;;;;;4917142;29;20059;-67
2021/10/28 02:15:44;;;;;;;34.00;19.17;;;;;;;;;;4916825;29;20127;-67
2021/10/28 02:18:12;;;;;;;33.83;20.20;;;;;;;;;;4900198;29;20699;-67
2021/10/28 02:20:39;;;;;;;36.33;19.02;;;;;;;;;;4916812;29;20503;-67
2021/10/28 02:23:07;;;;;;;33.28;19.60;;;;;;;;;;4916857;29;20100;-67
2021/10/28 02:25:33;;;;;;;32.60;19.63;;;;;;;;;;4917095;29;20083;-67
2021/10/28 02:28:00;;;;;;;32.13;19.77;;;;;;;;;;4916867;29;20052;-67
2021/10/28 02:30:27;;;;;;;30.17;17.77;;;;;;;;;;4916711;29;20100;-67
2021/10/28 02:32:54;;;;;;;35.75;20.73;;;;;;;;;;4916651;29;20106;-67
2021/10/28 02:35:20;;;;;;;36.75;21.52;;;;;;;;;;4916581;29;20052;-67
2021/10/28 02:37:47;;;;;;;36.80;21.55;;;;;;;;;;4916629;29;20063;-67
2021/10/28 02:40:14;;;;;;;34.00;20.70;;;;;;;;;;4916595;29;20104;-67
2021/10/28 02:42:40;;;;;;;42.47;22.45;;;;;;;;;;4916341;29;20115;-67
2021/10/28 02:45:08;;;;;;;40.92;22.95;;;;;;;;;;4916629;29;20052;-67
2021/10/28 02:47:35;;;;;;;41.28;22.92;;;;;;;;;;4916343;29;20044;-67
2021/10/28 02:50:03;;;;;;;40.97;22.45;;;;;;;;;;4916231;29;20568;-67
2021/10/28 02:52:29;;;;;;;36.13;19.98;;;;;;;;;;4916251;29;20107;-67
2021/10/28 02:54:56;;;;;;;40.47;23.30;;;;;;;;;;4918175;29;20048;-67
2021/10/28 02:57:22;;;;;;;42.25;21.67;;;;;;;;;;4916671;29;20052;-67
2021/10/28 02:59:49;;;;;;;39.70;21.98;;;;;;;;;;4916293;29;20503;-67
2021/10/28 03:02:16;;;;;;;51.67;25.88;;;;;;;;;;4920002;29;20052;-67
2021/10/28 03:04:43;;;;;;;50.83;26.05;;;;;;;;;;4924807;29;20059;-67
2021/10/28 03:07:10;;;;;;;43.83;23.67;;;;;;;;;;4924269;29;20100;-67
2021/10/28 03:09:36;;;;;;;44.20;24.23;;;;;;;;;;4923309;29;20060;-67
2021/10/28 03:12:05;;;;;;;48.40;25.08;;;;;;;;;;4925246;29;20063;-68
2021/10/28 03:14:44;;;;;;;43.55;23.10;;;;;;;;;;4925770;29;20401;-67
2021/10/28 03:27:44;;;;;;;44.58;23.35;;;;;;;;;;4921655;29;20197;-67
2021/10/28 03:30:11;;;;;;;37.78;21.75;;;;;;;;;;4921658;29;20052;-67
2021/10/28 03:32:39;;;;;;;37.05;22.00;;;;;;;;;;4921170;29;20060;-67
2021/10/28 03:35:10;;;;;;;38.83;22.30;;;;;;;;;;4920728;29;20048;-68
2021/10/28 03:37:45;;;;;;;35.65;21.23;;;;;;;;;;4921474;29;20060;-68
2021/10/28 04:31:00;;;;;;;37.00;22.15;;;;;;;;;;4915272;29;20112;-67
2021/10/28 04:33:27;;;;;;;40.42;21.95;;;;;;;;;;4901483;29;20067;-67
2021/10/28 04:35:54;;;;;;;39.05;21.52;;;;;;;;;;4918931;29;20131;-67
2021/10/28 04:38:21;;;;;;;42.58;23.33;;;;;;;;;;4919008;29;20052;-67
2021/10/28 04:40:48;;;;;;;36.10;20.05;;;;;;;;;;4901972;29;20503;-67
2021/10/28 04:43:14;;;;;;;40.25;22.85;;;;;;;;;;4918548;29;20048;-67
2021/10/28 04:45:41;;;;;;;42.28;22.25;;;;;;;;;;4918547;29;20507;-67
2021/10/28 04:48:10;;;;;;;36.50;20.77;;;;;;;;;;4918475;29;20095;-67
2021/10/28 04:50:37;;;;;;;40.40;21.75;;;;;;;;;;4918379;29;20048;-67
2021/10/28 04:53:03;;;;;;;41.28;22.33;;;;;;;;;;4918456;29;20503;-67
2021/10/28 04:55:30;;;;;;;41.45;22.67;;;;;;;;;;4918340;29;20048;-67
2021/10/28 04:57:56;;;;;;;43.88;22.15;;;;;;;;;;4918356;29;20492;-67
2021/10/28 05:00:23;;;;;;;39.97;22.20;;;;;;;;;;4918233;29;20095;-67
2021/10/28 05:02:50;;;;;;;44.30;23.05;;;;;;;;;;4918342;29;20060;-68
2021/10/28 05:05:17;;;;;;;45.10;23.65;;;;;;;;;;4918053;29;20424;-67
2021/10/28 05:07:43;;;;;;;47.92;23.20;;;;;;;;;;4918150;29;20095;-67
2021/10/28 05:10:10;;;;;;;52.40;24.40;;;;;;;;;;4915735;29;20131;-67
2021/10/28 05:12:37;;;;;;;56.25;26.52;;;;;;;;;;4915961;29;20124;-67
2021/10/28 05:15:04;;;;;;;51.22;24.67;;;;;;;;;;4916149;29;20148;-67
2021/10/28 05:17:31;;;;;;;53.47;25.83;;;;;;;;;;4916128;29;20111;-67
2021/10/28 05:19:57;;;;;;;46.60;24.48;;;;;;;;;;4916225;29;20056;-68
2021/10/28 05:22:24;;;;;;;48.40;24.50;;;;;;;;;;4915463;29;20096;-67
2021/10/28 05:24:51;;;;;;;50.70;24.80;;;;;;;;;;4916221;29;20048;-67
2021/10/28 05:27:17;;;;;;;42.97;24.08;;;;;;;;;;4915833;29;20492;-67
2021/10/28 05:30:00;;;;;;;40.33;23.90;;;;;;;;;;4915958;29;20066;-67
2021/10/28 05:32:26;;;;;;;46.13;24.17;;;;;;;;;;4915620;29;20463;-67
2021/10/28 05:34:58;;;;;;;45.45;23.50;;;;;;;;;;4915466;29;20056;-68
2021/10/28 05:37:26;;;;;;;45.22;23.85;;;;;;;;;;4915627;29;20078;-67
2021/10/28 05:39:55;;;;;;;46.75;24.20;;;;;;;;;;4915907;29;20087;-68
2021/10/28 05:42:23;;;;;;;41.75;22.55;;;;;;;;;;4915146;29;20062;-68
2021/10/28 05:44:50;;;;;;;37.05;20.45;;;;;;;;;;4915491;29;20127;-67
2021/10/28 05:47:17;;;;;;;41.67;22.23;;;;;;;;;;4915426;29;20105;-67
2021/10/28 05:49:45;;;;;;;46.55;23.70;;;;;;;;;;4915273;29;20056;-67
2021/10/28 05:52:11;;;;;;;40.90;22.17;;;;;;;;;;4915481;29;20500;-67
2021/10/28 05:54:38;;;;;;;39.97;23.10;;;;;;;;;;4898544;29;20056;-67
2021/10/28 05:57:06;;;;;;;40.35;21.70;;;;;;;;;;4915564;29;20139;-68
2021/10/28 05:59:32;;;;;;;40.17;22.65;;;;;;;;;;4914996;29;20078;-66
2021/10/28 06:01:59;;;;;;;38.47;22.02;;;;;;;;;;4914510;29;20063;-66
2021/10/28 06:04:26;;;;;;;39.67;22.63;;;;;;;;;;4914908;29;20052;-65
2021/10/28 06:06:53;;;;;;;42.70;24.23;;;;;;;;;;4915233;29;20112;-65
2021/10/28 06:09:19;;;;;;;34.28;20.83;;;;;;;;;;4915096;29;20060;-66
2021/10/28 06:11:48;;;;;;;38.97;22.20;;;;;;;;;;4914817;29;20055;-65
2021/10/28 06:14:21;;;;;;;41.20;22.27;;;;;;;;;;4914615;29;20060;-67
2021/10/28 06:16:53;;;;;;;49.35;23.23;;;;;;;;;;4914873;29;20056;-67
2021/10/28 06:19:20;;;;;;;41.95;22.90;;;;;;;;;;4914429;29;20044;-67
2021/10/28 06:21:46;;;;;;;38.40;21.85;;;;;;;;;;4914886;29;20060;-67
2021/10/28 06:24:13;;;;;;;39.47;22.20;;;;;;;;;;4915195;29;20143;-68
2021/10/28 06:26:39;;;;;;;39.42;23.50;;;;;;;;;;4915621;29;20112;-67
2021/10/28 06:29:06;;;;;;;41.55;22.25;;;;;;;;;;4916980;29;20063;-67
2021/10/28 06:31:33;;;;;;;41.20;23.05;;;;;;;;;;4916529;29;20492;-68
2021/10/28 06:34:03;;;;;;;36.65;21.40;;;;;;;;;;4916649;29;20428;-66
2021/10/28 06:36:35;;;;;;;40.47;23.70;;;;;;;;;;4916564;29;20056;-66
2021/10/28 06:39:02;;;;;;;38.30;23.38;;;;;;;;;;4916319;29;20467;-65
2021/10/28 06:41:30;;;;;;;38.05;22.42;;;;;;;;;;4915892;29;20060;-66
2021/10/28 06:43:59;;;;;;;39.40;21.75;;;;;;;;;;4915878;29;20570;-65
2021/10/28 06:46:27;;;;;;;39.63;21.75;;;;;;;;;;4914360;29;20059;-66
2021/10/28 06:48:54;;;;;;;41.90;23.52;;;;;;;;;;4915000;29;20504;-65
2021/10/28 06:51:22;;;;;;;40.90;23.08;;;;;;;;;;4914590;29;20111;-66
2021/10/28 06:54:00;;;;;;;42.88;22.65;;;;;;;;;;4898025;29;20103;-66
2021/10/28 07:04:33;;;;;;;41.05;22.15;;;;;;;;;;4901870;29;20056;-71
2021/10/28 07:07:00;;;;;;;45.17;25.65;;;;;;;;;;4915845;29;20456;-70
2021/10/28 07:09:34;;;;;;;49.58;25.63;;;;;;;;;;4915798;29;20052;-69
2021/10/28 07:14:53;;;;;;;48.88;25.95;;;;;;;;;;4915741;29;20464;-69
2021/10/28 07:25:56;;;;;;;47.50;24.88;;;;;;;;;;4915917;29;20186;-74
2021/10/28 07:55:55;;;;;;;42.33;24.10;;;;;;;;;;4904429;29;20053;-69
2021/10/28 08:21:56;;;;;;;37.72;22.70;;;;;;;;;;4936349;29;20043;-70
2021/10/28 08:29:40;;;;;;;36.20;22.60;;;;;;;;;;4936113;29;20070;-68
2021/10/28 08:32:07;;;;;;;37.83;22.60;;;;;;;;;;4937108;29;20051;-68
2021/10/28 08:34:37;;;;;;;33.53;20.98;;;;;;;;;;4936802;29;20420;-67
2021/10/28 08:37:09;;;;;;;32.78;20.75;;;;;;;;;;4933668;29;20055;-67
2021/10/28 08:39:36;;;;;;;30.92;20.00;;;;;;;;;;4935984;29;20056;-68
2021/10/28 08:42:08;;;;;;;27.65;19.38;;;;;;;;;;4936279;29;20056;-69
2021/10/28 08:44:40;;;;;;;30.93;20.27;;;;;;;;;;4936279;29;20114;-72
2021/10/28 08:47:10;;;;;;;28.80;19.75;;;;;;;;;;4936001;29;20055;-69
2021/10/28 08:49:48;;;;;;;27.08;18.23;;;;;;;;;;4935329;29;20047;-66
2021/10/28 08:57:25;;;;;;;25.88;18.00;;;;;;;;;;4936282;29;20530;-71
2021/10/28 09:24:47;;;;;;;21.88;15.13;;;;;;;;;;4897433;29;20056;-66
2021/10/28 09:29:51;;;;;;;21.98;15.43;;;;;;;;;;4897060;29;20488;-64
2021/10/28 09:44:11;;;;;;;24.77;15.98;;;;;;;;;;4893959;29;20116;-66
2021/10/28 09:46:47;;;;;;;23.00;15.02;;;;;;;;;;4893679;29;20060;-68
2021/10/28 09:51:48;;;;;;;19.33;14.15;;;;;;;;;;4896419;29;20049;-65
2021/10/28 09:54:31;;;;;;;20.27;14.88;;;;;;;;;;4897286;29;20512;-66
2021/10/28 09:59:46;;;;;;;19.52;14.80;;;;;;;;;;4895665;29;20571;-67
2021/10/28 10:04:56;;;;;;;20.45;14.05;;;;;;;;;;4896951;29;20488;-65
2021/10/28 10:07:23;;;;;;;21.45;14.30;;;;;;;;;;4895306;29;20339;-65
2021/10/28 10:09:50;;;;;;;20.02;13.88;;;;;;;;;;4893071;29;20048;-66
2021/10/28 10:12:17;;;;;;;19.40;14.10;;;;;;;;;;4896522;29;20048;-71
2021/10/28 10:14:45;;;;;;;19.25;14.07;;;;;;;;;;4879783;29;20061;-71
2021/10/28 10:17:12;;;;;;;17.33;12.70;;;;;;;;;;4879547;29;20049;-69
2021/10/28 10:19:42;;;;;;;19.77;15.10;;;;;;;;;;4896147;29;20104;-70
2021/10/28 11:31:05;;;;;;;16.15;12.00;;;;;;;;;;4895081;29;20061;-70
2021/10/28 12:43:38;;;;;;;13.48;11.38;;;;;;;;;;4877180;29;20052;-66
2021/10/28 12:43:40;;;;;;;11.75;10.27;;;;;;;;;;4893273;29;20063;-65
2021/10/28 12:46:12;;;;;;;;;;;;;;;;;;4895221;29;20662;-65
2021/10/28 12:49:17;;;;;;;13.57;11.35;;;;;;;;;;4894523;29;19927;-65
2021/10/28 12:51:50;;;;;;;14.15;10.90;;;;;;;;;;4877401;29;20052;-65
2021/10/28 13:03:24;;;;;;;11.90;9.00;;;;;;;;;;4885162;29;20057;-65
2021/10/28 13:55:21;;;;;;;11.93;8.65;;;;;;;;;;4896340;29;20056;-66
2021/10/28 13:57:54;;;;;;;13.63;9.18;;;;;;;;;;4897763;29;20048;-69
2021/10/28 14:25:35;;;;;;;13.20;9.25;;;;;;;;;;4880925;29;20060;-72
2021/10/28 15:34:33;;;;;;;17.35;10.93;;;;;;;;;;4897198;29;20092;-70
2021/10/28 16:23:26;;;;;;;21.17;14.05;;;;;;;;;;4891531;29;20373;-66
2021/10/28 16:25:53;;;;;;;22.65;14.35;;;;;;;;;;4892988;29;20052;-66
2021/10/28 16:28:20;;;;;;;23.70;16.02;;;;;;;;;;4894576;29;20052;-66
2021/10/28 16:30:47;;;;;;;20.65;14.23;;;;;;;;;;4896058;29;20797;-66
2021/10/28 16:33:14;;;;;;;22.20;15.05;;;;;;;;;;4896768;29;20060;-66
2021/10/28 16:35:42;;;;;;;20.90;14.52;;;;;;;;;;4898996;29;20064;-66
2021/10/28 16:38:09;;;;;;;22.08;14.65;;;;;;;;;;4896558;29;20052;-66
2021/10/28 16:40:37;;;;;;;22.02;14.90;;;;;;;;;;4896148;29;20508;-68
2021/10/28 16:43:04;;;;;;;22.58;14.68;;;;;;;;;;4896652;29;20091;-70
2021/10/28 16:45:30;;;;;;;25.38;16.58;;;;;;;;;;4896420;29;20048;-66
2021/10/28 16:47:57;;;;;;;23.83;16.65;;;;;;;;;;4896345;29;20116;-66
2021/10/28 16:50:25;;;;;;;28.05;17.20;;;;;;;;;;4895923;29;20100;-66
2021/10/28 16:52:52;;;;;;;26.10;16.83;;;;;;;;;;4896597;29;20052;-66
2021/10/28 16:55:18;;;;;;;25.85;17.60;;;;;;;;;;4895597;29;20057;-66
2021/10/28 16:57:45;;;;;;;28.55;17.30;;;;;;;;;;4896296;29;20452;-66
2021/10/28 17:00:12;;;;;;;25.02;16.33;;;;;;;;;;4895967;29;20087;-66
2021/10/28 17:02:39;;;;;;;26.08;16.83;;;;;;;;;;4895901;29;20480;-66
2021/10/28 17:05:06;;;;;;;26.48;17.25;;;;;;;;;;4896000;29;20135;-66
2021/10/28 17:07:33;;;;;;;28.13;18.05;;;;;;;;;;4896011;29;20053;-66
2021/10/28 17:10:00;;;;;;;24.42;17.38;;;;;;;;;;4895223;29;20052;-69
2021/10/28 17:12:28;;;;;;;25.73;17.15;;;;;;;;;;4894343;29;20041;-68
2021/10/28 17:14:54;;;;;;;28.27;17.48;;;;;;;;;;4896423;29;20087;-70
2021/10/28 17:17:22;;;;;;;28.52;16.63;;;;;;;;;;4896103;29;20052;-70
2021/10/28 17:19:49;;;;;;;24.40;16.50;;;;;;;;;;4894869;29;20060;-69
2021/10/28 17:22:19;;;;;;;21.90;14.38;;;;;;;;;;4895500;29;20128;-67
2021/10/28 17:24:48;;;;;;;18.27;13.48;;;;;;;;;;4896147;29;20112;-67
2021/10/28 17:27:15;;;;;;;17.95;13.20;;;;;;;;;;4894451;29;20188;-67
2021/10/28 17:29:42;;;;;;;21.25;12.40;;;;;;;;;;4895528;29;20543;-68
2021/10/28 17:32:09;;;;;;;17.17;11.48;;;;;;;;;;4895393;29;20100;-68
2021/10/28 17:34:36;;;;;;;17.38;10.90;;;;;;;;;;4897500;29;20064;-68
2021/10/28 17:37:03;;;;;;;14.10;9.70;;;;;;;;;;4895773;29;20113;-68
2021/10/28 17:39:30;;;;;;;12.73;8.50;;;;;;;;;;4894762;29;20044;-69
2021/10/28 17:42:00;;;;;;;13.00;8.13;;;;;;;;;;4879052;29;20096;-68
2021/10/28 17:44:52;;;;;;;10.82;8.02;;;;;;;;;;4895796;29;20044;-68
2021/10/28 17:47:19;;;;;;;12.65;7.65;;;;;;;;;;4894887;29;20049;-67
2021/10/28 17:49:46;;;;;;;10.25;7.43;;;;;;;;;;4894572;29;20056;-67
2021/10/28 17:52:33;;;;;;;13.27;7.90;;;;;;;;;;4894884;29;20076;-71
2021/10/28 17:55:03;;;;;;;12.07;7.85;;;;;;;;;;4895245;29;20214;-67
2021/10/28 17:57:31;;;;;;;9.52;7.93;;;;;;;;;;4895025;29;20057;-69
2021/10/28 18:00:03;;;;;;;10.68;8.80;;;;;;;;;;4894952;29;20514;-68
2021/10/28 18:02:32;;;;;;;15.40;8.35;;;;;;;;;;4892323;29;20049;-69
2021/10/28 18:05:06;;;;;;;14.50;8.82;;;;;;;;;;4895339;29;20135;-69
2021/10/28 18:07:35;;;;;;;12.63;8.80;;;;;;;;;;4874382;29;20054;-70
2021/10/28 18:10:05;;;;;;;12.00;8.57;;;;;;;;;;4892978;29;20053;-69
2021/10/28 18:12:35;;;;;;;14.82;9.15;;;;;;;;;;4895554;29;20123;-71
2021/10/28 18:15:05;;;;;;;12.35;8.40;;;;;;;;;;4893987;29;20103;-70
2021/10/28 18:17:43;;;;;;;11.10;8.25;;;;;;;;;;4894427;29;20136;-70
2021/10/28 18:20:12;;;;;;;15.52;10.10;;;;;;;;;;4893638;29;20088;-70
2021/10/28 18:22:40;;;;;;;16.38;9.52;;;;;;;;;;4893788;29;20101;-70
2021/10/28 18:25:10;;;;;;;10.98;8.20;;;;;;;;;;4893677;29;20057;-70
2021/10/28 18:27:40;;;;;;;15.40;8.85;;;;;;;;;;4892189;29;20060;-70
2021/10/28 18:30:16;;;;;;;12.68;8.43;;;;;;;;;;4894327;29;20064;-70
2021/10/28 18:32:46;;;;;;;12.57;8.13;;;;;;;;;;4875725;29;20053;-70
2021/10/28 18:35:16;;;;;;;13.20;8.70;;;;;;;;;;4880161;29;20484;-70
2021/10/28 18:37:48;;;;;;;14.10;9.20;;;;;;;;;;4894180;29;20052;-70
2021/10/28 18:40:16;;;;;;;12.55;8.80;;;;;;;;;;4891850;29;20135;-70
2021/10/28 18:42:45;;;;;;;12.75;9.00;;;;;;;;;;4894317;29;20048;-70
2021/10/28 18:45:13;;;;;;;12.77;9.13;;;;;;;;;;4895242;29;20048;-70
2021/10/28 18:47:48;;;;;;;11.85;8.68;;;;;;;;;;4894214;29;20068;-70
2021/10/28 18:50:14;;;;;;;14.27;9.25;;;;;;;;;;4893747;29;20056;-70
2021/10/28 18:52:41;;;;;;;15.73;9.15;;;;;;;;;;4893734;29;20060;-70
2021/10/28 18:55:08;;;;;;;15.50;10.52;;;;;;;;;;4894356;29;20056;-70
2021/10/28 18:57:35;;;;;;;14.50;10.15;;;;;;;;;;4894357;29;20112;-70
2021/10/28 19:00:04;;;;;;;15.02;9.90;;;;;;;;;;4894048;29;20052;-70
2021/10/28 19:02:33;;;;;;;20.85;10.60;;;;;;;;;;4893970;29;20060;-70
2021/10/28 19:05:01;;;;;;;13.80;10.60;;;;;;;;;;4894120;29;20053;-70
2021/10/28 19:07:29;;;;;;;16.10;10.98;;;;;;;;;;4893524;29;20063;-70
2021/10/28 19:09:55;;;;;;;18.30;11.30;;;;;;;;;;4893019;29;20048;-70
2021/10/28 19:12:23;;;;;;;17.40;12.23;;;;;;;;;;4890376;29;20100;-70
2021/10/28 19:14:50;;;;;;;16.65;10.65;;;;;;;;;;4893339;29;20182;-70
2021/10/28 19:17:16;;;;;;;19.10;12.10;;;;;;;;;;4893822;29;20052;-70
2021/10/28 19:19:44;;;;;;;16.02;10.88;;;;;;;;;;4892611;29;20075;-69
2021/10/28 19:22:17;;;;;;;15.57;10.52;;;;;;;;;;4893083;29;20362;-70
2021/10/28 19:24:45;;;;;;;17.27;10.20;;;;;;;;;;4894072;29;20071;-70
2021/10/28 19:38:06;;;;;;;18.58;12.13;;;;;;;;;;4899698;29;20075;-79
2021/10/28 19:48:16;;;;;;;15.55;10.57;;;;;;;;;;4895680;29;20063;-78
2021/10/28 19:50:47;;;;;;;15.02;10.63;;;;;;;;;;4896615;29;20082;-79
2021/10/28 19:53:14;;;;;;;13.57;9.70;;;;;;;;;;4880110;29;20056;-82
2021/10/28 19:55:42;;;;;;;14.95;10.45;;;;;;;;;;4895979;29;20052;-76
2021/10/28 19:58:12;;;;;;;15.00;10.45;;;;;;;;;;4881225;29;20087;-85
2021/10/28 20:00:48;;;;;;;19.65;10.52;;;;;;;;;;4886313;29;20044;-86
2021/10/28 20:05:52;;;;;;;14.73;10.32;;;;;;;;;;4892625;29;20540;-83
2021/10/28 20:13:59;;;;;;;15.05;10.35;;;;;;;;;;4896099;29;20056;-85
2021/10/28 20:22:02;;;;;;;13.50;9.50;;;;;;;;;;4893362;29;20044;-77
2021/10/28 20:24:30;;;;;;;13.80;10.02;;;;;;;;;;4896582;29;20144;-84
2021/10/28 20:26:58;;;;;;;17.05;10.10;;;;;;;;;;4893766;29;20509;-85
2021/10/28 20:29:27;;;;;;;15.10;9.35;;;;;;;;;;4898717;29;20074;-82
2021/10/28 20:31:54;;;;;;;13.95;10.07;;;;;;;;;;4912124;29;20044;-82
2021/10/28 20:37:06;;;;;;;14.27;11.55;;;;;;;;;;4904631;29;20052;-82
2021/10/28 20:39:35;;;;;;;15.07;10.23;;;;;;;;;;4889526;29;20516;-82
2021/10/28 20:42:02;;;;;;;13.90;10.68;;;;;;;;;;4888797;29;20050;-82
2021/10/28 20:44:29;;;;;;;15.48;9.73;;;;;;;;;;4888910;29;20052;-81
2021/10/28 20:46:56;;;;;;;12.75;10.50;;;;;;;;;;4889839;29;20052;-81
2021/10/28 20:49:23;;;;;;;16.10;10.52;;;;;;;;;;4888892;29;20076;-81
2021/10/28 20:51:51;;;;;;;16.45;10.75;;;;;;;;;;4902331;29;20067;-81
2021/10/28 20:54:18;;;;;;;17.67;11.13;;;;;;;;;;4900594;29;20044;-82
2021/10/28 20:56:45;;;;;;;13.20;10.23;;;;;;;;;;4878362;29;20056;-82
2021/10/28 20:59:12;;;;;;;14.50;10.57;;;;;;;;;;4879006;29;20505;-83
2021/10/28 21:01:38;;;;;;;17.10;11.68;;;;;;;;;;4884058;29;20506;-82
2021/10/28 21:04:06;;;;;;;16.75;11.90;;;;;;;;;;4883836;29;20056;-83
2021/10/28 21:06:34;;;;;;;21.20;13.18;;;;;;;;;;4909984;29;20576;-82
2021/10/28 21:09:01;;;;;;;17.00;11.10;;;;;;;;;;4892569;29;20408;-83
2021/10/28 21:11:28;;;;;;;15.30;11.48;;;;;;;;;;4886223;29;20048;-84
2021/10/28 21:13:55;;;;;;;16.42;11.45;;;;;;;;;;4887056;29;20058;-82
2021/10/28 21:16:21;;;;;;;16.45;12.05;;;;;;;;;;4877217;29;20053;-83
2021/10/28 21:18:48;;;;;;;16.15;11.30;;;;;;;;;;4913497;29;20060;-82
2021/10/28 21:21:15;;;;;;;18.05;13.00;;;;;;;;;;4887650;29;20063;-81
2021/10/28 21:23:42;;;;;;;21.73;12.80;;;;;;;;;;4853589;29;20053;-82
2021/10/28 21:26:09;;;;;;;17.85;12.05;;;;;;;;;;4900930;29;20060;-83
2021/10/28 21:28:35;;;;;;;21.17;12.63;;;;;;;;;;4895089;29;20065;-82
2021/10/28 21:31:02;;;;;;;20.52;13.18;;;;;;;;;;4885349;29;20049;-83
2021/10/28 21:33:29;;;;;;;20.52;13.18;;;;;;;;;;4908989;29;20044;-83
2021/10/28 21:35:56;;;;;;;21.20;13.82;;;;;;;;;;4884409;29;20059;-83
2021/10/28 21:38:23;;;;;;;23.63;14.65;;;;;;;;;;4886193;29;20088;-82
2021/10/28 21:40:50;;;;;;;21.88;13.30;;;;;;;;;;4885443;29;20056;-83
2021/10/28 21:43:17;;;;;;;25.58;15.15;;;;;;;;;;4904124;29;20081;-82
2021/10/28 21:45:47;;;;;;;21.77;13.85;;;;;;;;;;4910970;29;20056;-82
2021/10/28 21:48:15;;;;;;;23.50;14.77;;;;;;;;;;4888677;29;20057;-82
2021/10/28 21:50:42;;;;;;;23.67;15.55;;;;;;;;;;4886778;29;20139;-82
2021/10/28 21:53:12;;;;;;;22.48;14.95;;;;;;;;;;4870664;29;20052;-82
2021/10/28 21:56:04;;;;;;;23.38;15.35;;;;;;;;;;4885550;29;20052;-82
2021/10/28 21:58:47;;;;;;;26.20;14.65;;;;;;;;;;4900174;29;20062;-82
2021/10/28 22:25:38;;;;;;;28.65;16.60;;;;;;;;;;4906974;29;20064;-81
2021/10/28 22:28:05;;;;;;;27.17;16.67;;;;;;;;;;4887629;29;20063;-81
2021/10/28 22:30:32;;;;;;;24.33;15.95;;;;;;;;;;4870597;29;20138;-81
2021/10/28 22:32:59;;;;;;;26.52;16.48;;;;;;;;;;4890952;29;20045;-82
2021/10/28 22:35:41;;;;;;;27.63;16.50;;;;;;;;;;4890730;29;20135;-82
2021/10/28 22:38:10;;;;;;;29.37;17.60;;;;;;;;;;4904207;29;20425;-82
2021/10/28 22:40:41;;;;;;;33.13;18.08;;;;;;;;;;4890618;29;20308;-82
2021/10/28 22:43:11;;;;;;;35.50;18.23;;;;;;;;;;4904730;29;20049;-82
2021/10/28 22:45:40;;;;;;;30.90;17.95;;;;;;;;;;4858516;29;20067;-82
2021/10/28 22:48:08;;;;;;;29.58;18.88;;;;;;;;;;4874237;29;20087;-82
2021/10/28 22:50:36;;;;;;;32.00;18.42;;;;;;;;;;4904065;29;20072;-82
2021/10/28 22:53:03;;;;;;;34.38;19.98;;;;;;;;;;4873164;29;20049;-82
2021/10/28 22:55:43;;;;;;;35.85;20.63;;;;;;;;;;4857349;29;20428;-82
2021/10/28 22:58:20;;;;;;;42.08;21.17;;;;;;;;;;4872309;29;20063;-82
2021/10/28 23:11:33;;;;;;;36.35;21.88;;;;;;;;;;4903687;29;20062;-83
2021/10/28 23:21:58;;;;;;;37.88;20.25;;;;;;;;;;4898556;29;20128;-82
2021/10/28 23:24:25;;;;;;;31.70;19.70;;;;;;;;;;4880986;29;20428;-82
2021/10/28 23:26:54;;;;;;;35.97;20.73;;;;;;;;;;4892903;29;20243;-82
2021/10/28 23:29:21;;;;;;;32.05;19.77;;;;;;;;;;4877893;29;20057;-82
2021/10/28 23:31:48;;;;;;;34.40;19.92;;;;;;;;;;4851267;29;20056;-82
2021/10/28 23:34:16;;;;;;;34.72;21.10;;;;;;;;;;4868307;29;20119;-83
2021/10/28 23:36:42;;;;;;;37.03;21.48;;;;;;;;;;4863348;29;20059;-82
2021/10/28 23:39:10;;;;;;;30.77;18.27;;;;;;;;;;4866456;29;20058;-82
2021/10/28 23:41:37;;;;;;;32.72;19.08;;;;;;;;;;4899063;29;20501;-82
2021/10/28 23:44:05;;;;;;;43.78;21.98;;;;;;;;;;4869835;29;20045;-81
2021/10/28 23:46:32;;;;;;;41.95;20.83;;;;;;;;;;4854817;29;20100;-81
2021/10/28 23:48:58;;;;;;;39.28;20.52;;;;;;;;;;4867222;29;20505;-83
2021/10/28 23:51:26;;;;;;;40.83;21.60;;;;;;;;;;4908958;29;20057;-83
2021/10/28 23:53:53;;;;;;;33.08;19.10;;;;;;;;;;4912606;29;20060;-83
2021/10/28 23:56:19;;;;;;;32.92;19.55;;;;;;;;;;4898352;29;20072;-81
2021/10/28 23:58:46;;;;;;;29.38;18.23;;;;;;;;;;4897808;29;20416;-82
